Terminal Aerodrome Forecast
Issued by NWS Jacksonville, FL

Home | Current Version | Previous Version | Text Only | Print | Product List | Glossary On
Versions: 1 2 3 4 5 6 7 8 9 10 11 12 13 14 15 16 17 18 19 20 21 22 23 24 25 26
000
FTUS42 KJAX 282343
TAFGNV
TAF
KGNV 282343Z 2900/2924 05008KT P6SM VCSH SCT030 BKN110
     FM290300 11005KT P6SM VCSH SCT025 SCT070 BKN250
     FM291800 08008KT P6SM VCTS SCT025CB BKN050=

USA.gov is the U.S. government's official web portal to all federal, state and local government web resources and services.